Terminal Aerodrome Forecast
Issued by NWS Omaha/Valley, NE

Home | Current Version | Previous Version | Text Only | Print | Product List | Glossary On
Versions: 1 2 3 4 5 6 7 8 9 10 11 12 13 14 15 16 17 18 19 20 21 22 23 24 25 26 27 28 29 30 31 32 33 34 35 36 37 38
000
FTUS43 KOAX 310520
TAFOMA
TAF
KOMA 310520Z 3106/0106 18007KT P6SM OVC080
      TEMPO 3114/3118 5SM -SHRA BKN025
     FM311800 17008KT 5SM -RA OVC006 PROB30 3121/0101 14008KT 3SM
      -RASN OVC012
     FM010100 09009KT 3SM -SN OVC010=

USA.gov is the U.S. government's official web portal to all federal, state and local government web resources and services.